Pine Bluff, AR

06:55 AM CDT am 28. Mai 2015 (GMT -0500)
Pine Bluff - Deerfield | | Change Station
CLOSE
Current Station
Persönliche Wetterstationen
Location: Pine Bluff, AR
Höhe: 228 ft
Wetterstationen in der Umgebung

Höhe 228 ft 34.15 °N, 92.01 °W | Updated 0 second ago

Overcast
Bedeckt
68.9 °F
gefühlte 68.9 °F
N
0.0
Wind Wechselnd Wind aus Süd-Südost
Gusts 0.0 mph

Heute
Max. -- | schwach -- °F
--% Regenrisiko
Gestern
Max. -- | schwach -- °F
Precip. -- inch
5:58 AM 8:11 PM
Zweites Viertel, 75% visible
Druck 30.12 inch
Sichtweite 4.0 Meilen
Wolken Bedeckt 200 ft
Taupunkt 69 °F
Feuchtigkeit 99%
Regen 0.00 inch
Schneehöhe Nicht verfügbar..
UV 16.0 von 12
Pollen 5.90 von 12
Luftqualität Nicht verfügbar..
Flu Activity No Activity
SPECI KPBF 281146Z AUTO 21004KT 4SM BR OVC002 21/21 A3012 RMK AO2 T02060206

More Conditions Fewer Conditions

Druck 30.12 inch
Sichtweite 4.0 Meilen
Wolken Bedeckt 200 ft
Taupunkt 69 °F
Feuchtigkeit 99%
Regen 0.00 inch
Schneehöhe Nicht verfügbar..
UV 16.0 von 12
Pollen 5.90 von 12
Luftqualität Nicht verfügbar..
Flu Activity No Activity
SPECI KPBF 281146Z AUTO 21004KT 4SM BR OVC002 21/21 A3012 RMK AO2 T02060206

More Conditions Fewer Conditions

10-Day Weather Forecast

Almanac

Astronomie

May. 28, 2015 Aufgang Untergang
Genaue Zeit
Bürgerliche Dämmerung
Nautische Dämmerung
Astronomische Dämmerung
Mond
Länge des sichtbaren Lichts
Tageslänge
Tomorrow will be .
, % of the Moon is Illuminated

Heutige Rekorde

State Highs State Lows

Community

WunderPhotos

Upload Photos

1,824,959 Fotos hochgeladen!

WunderBlogs® & News

Nearby

Luftqualität

  Luftqualität LQ Index Schadstoff
Not available.

Schneehöhe

Station Depth Höhe

Erdbebenaktivität

Stadt Distance Mag. Time & Date
Minimum magnitude displayed is 2.5.

küstennahe Wassertemperaturen

Ort Temperatur

Stations

Wetterstationen in der Umgebung

Stationsstandort Temp. Windchill Taupunkt Feuchtigkeit Wind Precip. Höhe Aktualisiert Art